Time;durP1;ratioP1;P1;durP2;ratioP2;P2;SDS_P1;SDS_P2;PMS_P1;PMS_P2;Temp;Humidity;BMP_temperature;BMP_pressure;BME280_temperature;BME280_humidity;BME280_pressure;Samples;Min_cycle;Max_cycle;Signal;HPM_P1;HPM_P2
2020/12/14 00:00:21;;;;;;;1.02;0.50;;;;;;;;;;4326421;33;20550;-85
2020/12/14 00:02:50;;;;;;;2.70;2.60;;;;;;;;;;4335770;27;20076;-86
2020/12/14 00:05:18;;;;;;;2.22;2.12;;;;;;;;;;4289431;33;20059;-85
2020/12/14 00:07:46;;;;;;;0.68;0.52;;;;;;;;;;4308827;33;20149;-86
2020/12/14 00:10:15;;;;;;;2.55;2.17;;;;;;;;;;4335507;27;20095;-86
2020/12/14 00:12:43;;;;;;;3.65;0.50;;;;;;;;;;4307543;33;20060;-86
2020/12/14 00:15:11;;;;;;;8.48;0.60;;;;;;;;;;4321754;33;20110;-86
2020/12/14 00:17:39;;;;;;;7.32;0.57;;;;;;;;;;4331547;27;20103;-84
2020/12/14 00:20:08;;;;;;;1.37;0.50;;;;;;;;;;4325499;33;20120;-86
2020/12/14 00:22:36;;;;;;;2.97;0.60;;;;;;;;;;4356857;27;21689;-85
2020/12/14 00:25:05;;;;;;;1.90;0.43;;;;;;;;;;4285389;33;20111;-86
2020/12/14 00:27:33;;;;;;;0.40;0.40;;;;;;;;;;4283867;33;20100;-84
2020/12/14 00:30:05;;;;;;;0.75;0.50;;;;;;;;;;4324781;27;20068;-85
2020/12/14 00:32:34;;;;;;;2.20;0.35;;;;;;;;;;4309774;33;20549;-87
2020/12/14 00:35:02;;;;;;;1.65;0.68;;;;;;;;;;4296081;33;20146;-86
2020/12/14 00:37:30;;;;;;;2.08;1.90;;;;;;;;;;4330664;27;20600;-86
2020/12/14 00:39:59;;;;;;;3.00;2.20;;;;;;;;;;4326995;33;20710;-85
2020/12/14 00:42:27;;;;;;;4.75;1.20;;;;;;;;;;4335775;33;20099;-85
2020/12/14 00:44:56;;;;;;;1.10;1.10;;;;;;;;;;4311558;27;20637;-85
2020/12/14 00:47:24;;;;;;;1.42;0.80;;;;;;;;;;4293113;33;20107;-85
2020/12/14 00:49:53;;;;;;;3.12;0.80;;;;;;;;;;4286740;33;20558;-86
2020/12/14 00:52:21;;;;;;;0.75;0.73;;;;;;;;;;4318149;27;20459;-85
2020/12/14 00:54:56;;;;;;;0.45;0.40;;;;;;;;;;4317515;33;20286;-86
2020/12/14 00:57:30;;;;;;;1.60;0.60;;;;;;;;;;4323682;27;20049;31
2020/12/14 00:59:59;;;;;;;;;;;;;;;;;;4311471;27;20106;-87
2020/12/14 01:02:27;;;;;;;6.00;0.90;;;;;;;;;;4284938;33;20022;-87
2020/12/14 01:04:55;;;;;;;0.98;0.55;;;;;;;;;;4340486;27;20083;-87
2020/12/14 01:07:24;;;;;;;6.05;0.60;;;;;;;;;;4343817;32;20129;-86
2020/12/14 01:09:52;;;;;;;3.25;0.52;;;;;;;;;;4341688;33;20353;-86
2020/12/14 01:12:20;;;;;;;5.55;0.68;;;;;;;;;;4351613;27;20413;-86
2020/12/14 01:14:49;;;;;;;5.85;0.60;;;;;;;;;;4311789;33;20123;-85
2020/12/14 01:17:17;;;;;;;1.55;0.57;;;;;;;;;;4325724;33;20516;-86
2020/12/14 01:19:45;;;;;;;2.83;0.60;;;;;;;;;;4347387;27;20091;-85
2020/12/14 01:22:14;;;;;;;1.17;0.80;;;;;;;;;;4309145;33;20368;-88
2020/12/14 01:24:42;;;;;;;2.70;0.90;;;;;;;;;;4318934;33;20187;-86
2020/12/14 01:27:10;;;;;;;20.25;1.67;;;;;;;;;;4333447;27;20134;-85
2020/12/14 01:29:41;;;;;;;46.05;2.55;;;;;;;;;;4300344;33;20968;-86
2020/12/14 01:32:09;;;;;;;15.50;0.77;;;;;;;;;;4318499;27;20208;-86
2020/12/14 01:34:38;;;;;;;46.55;2.17;;;;;;;;;;4310676;33;20118;-85
2020/12/14 01:37:06;;;;;;;4.93;0.60;;;;;;;;;;4317359;33;20076;-85
2020/12/14 01:39:34;;;;;;;1.40;0.40;;;;;;;;;;4325076;27;20118;-86
2020/12/14 01:42:03;;;;;;;6.97;0.60;;;;;;;;;;4309327;33;20187;-86
2020/12/14 01:44:32;;;;;;;18.23;1.20;;;;;;;;;;4295128;33;20135;-88
2020/12/14 01:47:02;;;;;;;7.07;0.65;;;;;;;;;;4260286;27;20439;-86
2020/12/14 01:49:31;;;;;;;49.72;1.52;;;;;;;;;;4293158;33;21260;-86
2020/12/14 01:52:00;;;;;;;8.80;0.90;;;;;;;;;;4301499;27;20084;-87
2020/12/14 01:54:36;;;;;;;46.42;1.92;;;;;;;;;;4310476;33;20090;-86
2020/12/14 01:57:04;;;;;;;6.85;0.40;;;;;;;;;;4313071;33;20090;-87
2020/12/14 01:59:33;;;;;;;16.92;0.75;;;;;;;;;;4297175;27;20099;-86
2020/12/14 02:02:01;;;;;;;31.75;1.55;;;;;;;;;;4304002;33;20432;-85
2020/12/14 02:04:30;;;;;;;21.50;1.62;;;;;;;;;;4291499;33;20115;-86
2020/12/14 02:06:58;;;;;;;18.45;1.52;;;;;;;;;;4303592;27;20098;-86
2020/12/14 02:09:26;;;;;;;18.35;1.25;;;;;;;;;;4312677;33;20187;-85
2020/12/14 02:11:54;;;;;;;16.23;2.17;;;;;;;;;;4278710;27;20078;-87
2020/12/14 02:14:23;;;;;;;4.80;4.50;;;;;;;;;;4327383;27;20102;-87
2020/12/14 02:16:51;;;;;;;14.45;4.82;;;;;;;;;;4318873;33;20133;-86
2020/12/14 02:19:19;;;;;;;7.87;7.47;;;;;;;;;;4299594;33;20411;-86
2020/12/14 02:21:51;;;;;;;7.15;4.70;;;;;;;;;;4345450;27;20115;-85
2020/12/14 02:24:20;;;;;;;4.80;4.50;;;;;;;;;;4330324;33;20103;-86
2020/12/14 02:26:50;;;;;;;3.60;3.40;;;;;;;;;;4318426;27;20143;31
2020/12/14 02:29:19;;;;;;;5.15;4.80;;;;;;;;;;4276102;27;20123;-85
2020/12/14 02:31:51;;;;;;;42.92;7.03;;;;;;;;;;4314603;27;20583;31
2020/12/14 02:34:20;;;;;;;4.72;4.50;;;;;;;;;;4311098;27;20107;-85
2020/12/14 02:36:49;;;;;;;4.85;1.67;;;;;;;;;;4299930;33;20162;-87
2020/12/14 02:39:17;;;;;;;2.20;2.10;;;;;;;;;;4300270;33;20064;-87
2020/12/14 02:41:46;;;;;;;8.73;7.87;;;;;;;;;;4242584;27;20091;-86
2020/12/14 02:44:14;;;;;;;11.30;10.38;;;;;;;;;;4290107;33;20068;-86
2020/12/14 02:46:44;;;;;;;29.42;5.80;;;;;;;;;;4290407;33;20580;-85
2020/12/14 02:49:13;;;;;;;7.22;4.85;;;;;;;;;;4251815;27;20807;-86
2020/12/14 02:51:42;;;;;;;6.30;6.00;;;;;;;;;;4289252;27;20128;-86
2020/12/14 02:54:10;;;;;;;7.47;6.10;;;;;;;;;;4312040;27;20112;31
2020/12/14 02:56:41;;;;;;;11.18;9.88;;;;;;;;;;4313702;27;20064;-85
2020/12/14 02:59:11;;;;;;;13.85;5.62;;;;;;;;;;4300657;33;20056;-87
2020/12/14 03:01:39;;;;;;;20.55;6.68;;;;;;;;;;4327907;27;20090;-85
2020/12/14 03:04:08;;;;;;;6.22;5.82;;;;;;;;;;4311588;33;20094;-87
2020/12/14 03:06:36;;;;;;;7.97;7.47;;;;;;;;;;4316041;33;20111;-86
2020/12/14 03:09:05;;;;;;;7.93;7.50;;;;;;;;;;4309496;27;20126;-86
2020/12/14 03:11:34;;;;;;;8.00;7.37;;;;;;;;;;4307324;33;20230;-86
2020/12/14 03:14:13;;;;;;;7.55;7.00;;;;;;;;;;5334398;26;20092;-85
2020/12/14 03:16:46;;;;;;;7.10;6.70;;;;;;;;;;5271118;27;20032;-85
2020/12/14 03:19:14;;;;;;;7.68;6.00;;;;;;;;;;5246056;27;20046;-83
2020/12/14 03:21:43;;;;;;;5.70;5.30;;;;;;;;;;5266395;27;20392;-86
2020/12/14 03:24:11;;;;;;;5.57;5.07;;;;;;;;;;5293276;27;20067;-86
2020/12/14 03:26:40;;;;;;;5.60;5.05;;;;;;;;;;5257508;27;20398;-86
2020/12/14 03:29:09;;;;;;;6.15;5.65;;;;;;;;;;5277103;26;20902;-86
2020/12/14 03:31:39;;;;;;;4.93;4.45;;;;;;;;;;5275855;26;20425;-86
2020/12/14 03:34:07;;;;;;;8.68;4.82;;;;;;;;;;5299219;27;20065;-86
2020/12/14 03:36:36;;;;;;;4.40;4.10;;;;;;;;;;5281557;27;20475;-87
2020/12/14 03:39:07;;;;;;;6.70;6.40;;;;;;;;;;5295524;26;20444;-85
2020/12/14 03:41:35;;;;;;;5.90;5.40;;;;;;;;;;5324433;26;20060;-84
2020/12/14 03:44:04;;;;;;;6.72;6.05;;;;;;;;;;5320221;26;20439;-85
2020/12/14 03:46:32;;;;;;;6.85;6.18;;;;;;;;;;5300956;27;20033;-84
2020/12/14 03:49:00;;;;;;;9.25;5.90;;;;;;;;;;5316630;27;20786;-85
2020/12/14 03:51:31;;;;;;;7.87;7.37;;;;;;;;;;5296838;27;20651;-84
2020/12/14 03:53:59;;;;;;;9.93;7.10;;;;;;;;;;5277853;27;20071;-84
2020/12/14 03:56:27;;;;;;;7.15;6.85;;;;;;;;;;5277363;27;20049;-84
2020/12/14 03:58:58;;;;;;;8.60;8.20;;;;;;;;;;5272062;27;20456;-86
2020/12/14 04:01:26;;;;;;;6.70;6.30;;;;;;;;;;5289441;26;20029;-84
2020/12/14 04:03:55;;;;;;;7.00;6.70;;;;;;;;;;5272374;27;20977;-84
2020/12/14 04:06:24;;;;;;;9.68;6.40;;;;;;;;;;5252094;26;20056;-84
2020/12/14 04:08:53;;;;;;;7.25;6.60;;;;;;;;;;5292056;27;20022;-85
2020/12/14 04:11:22;;;;;;;20.12;12.82;;;;;;;;;;5254421;27;20083;-83
2020/12/14 04:13:50;;;;;;;11.10;10.30;;;;;;;;;;5276755;27;20062;-85
2020/12/14 04:16:19;;;;;;;13.15;10.40;;;;;;;;;;5296502;27;20033;-85
2020/12/14 04:18:49;;;;;;;11.90;10.93;;;;;;;;;;5317556;27;20069;-84
2020/12/14 04:21:18;;;;;;;11.88;11.07;;;;;;;;;;5285089;26;20033;-84
2020/12/14 04:23:47;;;;;;;9.90;8.82;;;;;;;;;;5270884;27;20387;-84
2020/12/14 04:26:16;;;;;;;10.55;9.95;;;;;;;;;;5267785;27;20462;-85
2020/12/14 04:28:44;;;;;;;10.88;7.43;;;;;;;;;;5263414;27;20494;-84
2020/12/14 04:31:12;;;;;;;7.22;6.72;;;;;;;;;;5287538;27;20030;-85
2020/12/14 04:33:41;;;;;;;12.70;11.75;;;;;;;;;;5257022;27;20025;-86
2020/12/14 04:36:12;;;;;;;13.73;12.63;;;;;;;;;;5254993;27;20025;-84
2020/12/14 04:38:40;;;;;;;9.88;9.20;;;;;;;;;;5291882;27;20432;-84
2020/12/14 04:41:09;;;;;;;10.65;10.05;;;;;;;;;;5287907;27;20089;-84
2020/12/14 04:43:38;;;;;;;8.60;7.28;;;;;;;;;;5303679;27;20076;-86
2020/12/14 04:46:06;;;;;;;17.23;15.60;;;;;;;;;;5305598;26;20025;-85
2020/12/14 04:48:35;;;;;;;20.62;15.93;;;;;;;;;;5262175;27;20034;-86
2020/12/14 04:51:03;;;;;;;17.00;15.27;;;;;;;;;;5231203;27;20040;-83
2020/12/14 04:53:32;;;;;;;16.95;15.55;;;;;;;;;;5252368;27;20474;-85
2020/12/14 04:56:04;;;;;;;17.10;14.80;;;;;;;;;;5272777;27;20052;-86
2020/12/14 04:58:32;;;;;;;15.90;14.90;;;;;;;;;;5269012;27;20361;-83
2020/12/14 05:01:03;;;;;;;17.00;15.30;;;;;;;;;;5280472;26;20056;-84
2020/12/14 05:03:31;;;;;;;18.08;16.27;;;;;;;;;;5272156;27;20041;-84
2020/12/14 05:06:03;;;;;;;17.12;15.82;;;;;;;;;;5280700;27;20036;-84
2020/12/14 05:08:31;;;;;;;17.05;15.30;;;;;;;;;;5313681;26;20045;-84
2020/12/14 05:10:59;;;;;;;19.20;17.70;;;;;;;;;;5314163;26;20051;-85
2020/12/14 05:13:28;;;;;;;17.73;8.65;;;;;;;;;;5299396;26;20041;-84
2020/12/14 05:15:57;;;;;;;7.15;6.55;;;;;;;;;;5272265;27;20047;-84
2020/12/14 05:18:26;;;;;;;8.50;7.00;;;;;;;;;;5294277;27;20026;-84
2020/12/14 05:20:58;;;;;;;7.87;7.03;;;;;;;;;;5287104;26;20488;-84
2020/12/14 05:23:27;;;;;;;8.43;7.93;;;;;;;;;;5275505;27;20397;-84
2020/12/14 05:26:06;;;;;;;10.10;9.40;;;;;;;;;;5293176;27;20037;-84
2020/12/14 05:28:35;;;;;;;7.15;6.53;;;;;;;;;;5256985;27;20051;-84
2020/12/14 05:31:03;;;;;;;4.80;4.60;;;;;;;;;;5272928;27;20038;-84
2020/12/14 05:33:32;;;;;;;4.90;4.70;;;;;;;;;;5275756;27;20058;-84
2020/12/14 05:36:01;;;;;;;6.90;6.40;;;;;;;;;;5291704;27;20079;-84
2020/12/14 05:38:30;;;;;;;6.15;5.43;;;;;;;;;;5299094;27;20044;-83
2020/12/14 05:41:00;;;;;;;7.57;6.95;;;;;;;;;;5305475;26;20029;-83
2020/12/14 05:43:30;;;;;;;3.62;3.42;;;;;;;;;;5257579;27;20034;-84
2020/12/14 05:46:12;;;;;;;7.75;7.25;;;;;;;;;;5268630;27;20029;-84
2020/12/14 05:48:41;;;;;;;11.68;10.88;;;;;;;;;;5280886;27;20052;-85
2020/12/14 05:51:10;;;;;;;14.40;13.02;;;;;;;;;;5296527;27;20041;-84
2020/12/14 05:53:38;;;;;;;14.18;12.90;;;;;;;;;;5258170;27;20069;-83
2020/12/14 05:56:07;;;;;;;11.38;10.45;;;;;;;;;;5276712;27;20044;-83
2020/12/14 05:58:37;;;;;;;8.15;7.75;;;;;;;;;;5278083;27;20073;-83
2020/12/14 06:01:26;;;;;;;13.27;12.15;;;;;;;;;;5272354;27;20424;31
2020/12/14 06:03:56;;;;;;;13.65;12.43;;;;;;;;;;5248861;27;20273;-83
2020/12/14 06:06:30;;;;;;;12.02;11.20;;;;;;;;;;5249599;27;20418;-84
2020/12/14 06:09:04;;;;;;;13.07;12.30;;;;;;;;;;5228814;27;20057;-83
2020/12/14 06:11:53;;;;;;;16.70;15.57;;;;;;;;;;5227523;27;20037;-83
2020/12/14 06:14:21;;;;;;;11.63;11.00;;;;;;;;;;5234835;27;20034;-84
2020/12/14 06:16:52;;;;;;;12.90;12.30;;;;;;;;;;5271497;27;20035;-84
2020/12/14 06:19:21;;;;;;;12.00;11.50;;;;;;;;;;5269968;27;20052;-84
2020/12/14 06:21:57;;;;;;;10.75;10.15;;;;;;;;;;5220567;27;20074;-82
2020/12/14 06:24:26;;;;;;;9.88;9.25;;;;;;;;;;5202625;27;20030;-83
2020/12/14 06:26:54;;;;;;;10.57;9.80;;;;;;;;;;5207553;27;20022;-83
2020/12/14 06:29:32;;;;;;;9.75;9.25;;;;;;;;;;5221409;27;20056;-83
2020/12/14 06:32:01;;;;;;;11.95;11.25;;;;;;;;;;5226697;27;20218;-84
2020/12/14 06:34:32;;;;;;;10.38;9.60;;;;;;;;;;5222828;27;20108;-83
2020/12/14 06:37:02;;;;;;;10.75;10.00;;;;;;;;;;5186055;27;20124;-85
2020/12/14 06:39:34;;;;;;;9.90;9.50;;;;;;;;;;5207590;27;20044;-84
2020/12/14 06:42:09;;;;;;;7.97;7.05;;;;;;;;;;5229621;27;20502;-84
2020/12/14 06:44:57;;;;;;;8.77;8.32;;;;;;;;;;5254872;27;20049;-83
2020/12/14 06:47:26;;;;;;;8.00;7.70;;;;;;;;;;5242101;27;20069;-83
2020/12/14 06:49:55;;;;;;;17.98;8.25;;;;;;;;;;5207331;27;20026;-83
2020/12/14 06:52:35;;;;;;;13.93;9.60;;;;;;;;;;5212463;27;20031;-85
2020/12/14 06:55:04;;;;;;;9.48;7.70;;;;;;;;;;5218353;27;20456;-83
2020/12/14 06:57:40;;;;;;;8.15;7.60;;;;;;;;;;5222552;27;20053;-82
2020/12/14 07:00:18;;;;;;;8.25;7.85;;;;;;;;;;5240637;27;20038;-82
2020/12/14 07:02:56;;;;;;;8.80;8.23;;;;;;;;;;4414374;26;20164;-82
2020/12/14 07:05:31;;;;;;;8.40;7.80;;;;;;;;;;4377952;32;20077;-82
2020/12/14 07:08:00;;;;;;;8.38;7.80;;;;;;;;;;4384355;27;20105;-85
2020/12/14 07:10:29;;;;;;;7.95;7.62;;;;;;;;;;4353155;32;20920;-85
2020/12/14 07:13:01;;;;;;;8.20;7.70;;;;;;;;;;4374878;27;20051;-86
2020/12/14 07:16:06;;;;;;;11.32;10.52;;;;;;;;;;4283883;33;20075;-87
2020/12/14 07:18:35;;;;;;;8.30;7.80;;;;;;;;;;4299821;33;20080;-86
2020/12/14 07:21:09;;;;;;;10.60;7.37;;;;;;;;;;4333270;27;20541;-86
2020/12/14 07:23:38;;;;;;;6.47;6.05;;;;;;;;;;4323000;33;20135;-87
2020/12/14 07:26:08;;;;;;;7.75;7.43;;;;;;;;;;4327343;33;20496;-86
2020/12/14 07:28:37;;;;;;;7.78;7.20;;;;;;;;;;4342630;27;20776;-86
2020/12/14 07:31:08;;;;;;;7.43;6.80;;;;;;;;;;4313038;33;20052;-86
2020/12/14 07:33:37;;;;;;;7.20;6.90;;;;;;;;;;4296402;27;20061;-85
2020/12/14 07:36:07;;;;;;;7.90;7.50;;;;;;;;;;4295258;33;20057;-86
2020/12/14 07:38:44;;;;;;;6.75;6.55;;;;;;;;;;4306739;33;20486;-87
2020/12/14 07:41:12;;;;;;;7.68;7.35;;;;;;;;;;4328090;27;20052;-86
2020/12/14 07:43:44;;;;;;;9.95;9.43;;;;;;;;;;4302907;33;20544;-86
2020/12/14 07:46:20;;;;;;;10.20;9.52;;;;;;;;;;4331490;27;20886;-86
2020/12/14 07:48:52;;;;;;;11.40;10.65;;;;;;;;;;4316802;33;20083;-87
2020/12/14 07:51:20;;;;;;;11.40;10.90;;;;;;;;;;4316794;33;20464;-87
2020/12/14 07:53:53;;;;;;;11.50;10.90;;;;;;;;;;4288002;27;20057;-86
2020/12/14 07:56:21;;;;;;;10.13;9.30;;;;;;;;;;4311136;33;20535;-85
2020/12/14 07:58:50;;;;;;;6.70;6.28;;;;;;;;;;4314016;33;20091;-86
2020/12/14 08:01:22;;;;;;;12.23;11.45;;;;;;;;;;4327000;27;20102;-86
2020/12/14 08:03:51;;;;;;;14.65;13.73;;;;;;;;;;4313264;33;20103;-86
2020/12/14 08:06:22;;;;;;;5.80;5.50;;;;;;;;;;4313423;33;20121;-87
2020/12/14 08:08:54;;;;;;;12.48;11.70;;;;;;;;;;4291610;27;20057;-86
2020/12/14 08:11:22;;;;;;;11.00;10.30;;;;;;;;;;4302063;33;20119;-87
2020/12/14 08:13:51;;;;;;;9.95;9.50;;;;;;;;;;4283920;27;20103;-86
2020/12/14 08:16:20;;;;;;;9.50;8.90;;;;;;;;;;4330120;27;20152;-88
2020/12/14 08:18:49;;;;;;;5.57;5.32;;;;;;;;;;4302024;33;20585;-86
2020/12/14 08:21:22;;;;;;;5.55;5.18;;;;;;;;;;4280273;27;20073;-87
2020/12/14 08:23:53;;;;;;;5.03;4.65;;;;;;;;;;4313089;33;20473;-84
2020/12/14 08:26:25;;;;;;;8.85;5.78;;;;;;;;;;4311425;33;20535;-85
2020/12/14 08:28:59;;;;;;;11.85;11.23;;;;;;;;;;4282201;27;20075;-87
2020/12/14 08:31:27;;;;;;;6.87;6.47;;;;;;;;;;4281011;33;20516;-86
2020/12/14 08:33:57;;;;;;;4.50;4.30;;;;;;;;;;4331781;27;20049;-83
2020/12/14 08:36:26;;;;;;;5.75;5.45;;;;;;;;;;4331261;27;20377;-84
2020/12/14 08:38:54;;;;;;;4.32;4.00;;;;;;;;;;4283920;33;20456;-85
2020/12/14 08:41:24;;;;;;;8.13;7.72;;;;;;;;;;4322461;27;20103;-83
2020/12/14 08:43:54;;;;;;;5.07;4.87;;;;;;;;;;4312006;33;20374;-85
2020/12/14 08:46:28;;;;;;;4.62;4.43;;;;;;;;;;4324234;33;20107;-86
2020/12/14 08:49:01;;;;;;;4.12;3.70;;;;;;;;;;4296827;27;20340;31
2020/12/14 08:54:26;;;;;;;4.78;4.03;;;;;;;;;;4309369;33;20227;-86
2020/12/14 09:00:43;;;;;;;6.40;6.10;;;;;;;;;;4294857;33;20072;-88
2020/12/14 09:03:11;;;;;;;5.78;5.40;;;;;;;;;;4289314;27;20175;-90
2020/12/14 09:05:40;;;;;;;4.65;4.45;;;;;;;;;;4309606;33;20081;-87
2020/12/14 09:08:12;;;;;;;1.87;1.48;;;;;;;;;;4268532;27;20156;-88
2020/12/14 09:10:41;;;;;;;8.93;8.45;;;;;;;;;;4320871;33;20083;-89
2020/12/14 09:13:12;;;;;;;3.42;3.33;;;;;;;;;;4319043;33;20061;-90
2020/12/14 09:15:52;;;;;;;3.97;3.78;;;;;;;;;;4311681;27;20049;-87
2020/12/14 09:18:21;;;;;;;1.12;1.12;;;;;;;;;;4310413;33;20052;-86
2020/12/14 09:21:03;;;;;;;10.98;10.38;;;;;;;;;;4312161;27;20104;-89
2020/12/14 09:23:40;;;;;;;4.78;4.47;;;;;;;;;;4295120;33;20069;-85
2020/12/14 09:26:08;;;;;;;8.82;8.48;;;;;;;;;;4291479;33;20068;-85
2020/12/14 09:28:36;;;;;;;36.20;34.50;;;;;;;;;;4341362;27;20097;-85
2020/12/14 09:31:05;;;;;;;1.98;0.50;;;;;;;;;;4285350;33;20061;-85
2020/12/14 09:33:34;;;;;;;2.12;0.88;;;;;;;;;;4296454;33;20122;-84
2020/12/14 09:36:16;;;;;;;1.62;0.50;;;;;;;;;;4465857;31;20087;-86
2020/12/14 09:38:44;;;;;;;2.47;0.65;;;;;;;;;;4456771;32;20057;-85
2020/12/14 09:41:13;;;;;;;0.85;0.50;;;;;;;;;;4458783;32;20101;-85
2020/12/14 09:43:43;;;;;;;2.72;0.90;;;;;;;;;;4456767;32;20097;-85
2020/12/14 09:46:11;;;;;;;1.15;0.90;;;;;;;;;;4453169;32;20446;-85
2020/12/14 09:48:40;;;;;;;1.58;1.00;;;;;;;;;;4439586;32;20057;-86
2020/12/14 09:51:08;;;;;;;4.68;3.12;;;;;;;;;;4425578;32;20067;-86
2020/12/14 09:53:38;;;;;;;17.35;16.60;;;;;;;;;;4429009;32;20101;-86
2020/12/14 09:56:06;;;;;;;1.25;1.20;;;;;;;;;;4452600;32;20122;-86
2020/12/14 09:58:46;;;;;;;18.50;17.70;;;;;;;;;;4456519;32;20084;-86
2020/12/14 10:01:15;;;;;;;24.23;22.90;;;;;;;;;;4455462;32;20038;-87
2020/12/14 10:03:44;;;;;;;31.95;30.27;;;;;;;;;;4451293;32;20088;-87
2020/12/14 10:06:15;;;;;;;24.15;22.87;;;;;;;;;;4454386;32;20058;-88
2020/12/14 10:08:44;;;;;;;1.45;1.45;;;;;;;;;;4447883;32;20069;-87
2020/12/14 10:11:12;;;;;;;0.50;0.50;;;;;;;;;;4450848;32;20068;-87
2020/12/14 10:13:40;;;;;;;0.30;0.30;;;;;;;;;;4454133;32;20098;-86
2020/12/14 10:16:08;;;;;;;0.45;0.40;;;;;;;;;;4451683;32;20068;-86
2020/12/14 10:18:36;;;;;;;0.80;0.80;;;;;;;;;;4460876;32;20414;-86
2020/12/14 10:21:06;;;;;;;2.75;0.50;;;;;;;;;;4455356;32;20431;-85
2020/12/14 10:23:35;;;;;;;0.60;0.60;;;;;;;;;;4456295;32;20120;-86
2020/12/14 10:26:03;;;;;;;1.60;1.50;;;;;;;;;;4449944;32;20049;-86
2020/12/14 10:28:31;;;;;;;2.83;2.33;;;;;;;;;;4444139;32;20440;-86
2020/12/14 10:30:59;;;;;;;2.12;1.40;;;;;;;;;;4455789;32;20091;-86
2020/12/14 10:33:30;;;;;;;2.40;0.60;;;;;;;;;;4456567;32;20110;-87
2020/12/14 10:35:58;;;;;;;16.67;15.90;;;;;;;;;;4460816;32;20057;-86
2020/12/14 10:38:26;;;;;;;12.70;12.15;;;;;;;;;;4460381;32;20113;-86
2020/12/14 10:40:55;;;;;;;11.52;11.02;;;;;;;;;;4455924;32;20466;-87
2020/12/14 10:43:23;;;;;;;0.45;0.40;;;;;;;;;;4457500;32;20076;-87
2020/12/14 10:45:51;;;;;;;0.45;0.40;;;;;;;;;;4454937;32;20061;-86
2020/12/14 10:48:19;;;;;;;0.60;0.60;;;;;;;;;;4444972;32;20049;-87
2020/12/14 10:50:47;;;;;;;1.65;0.40;;;;;;;;;;4442537;32;20091;-86
2020/12/14 10:53:16;;;;;;;1.05;0.80;;;;;;;;;;4437986;32;20077;-86
2020/12/14 10:55:45;;;;;;;1.17;0.50;;;;;;;;;;4444663;32;20049;-86
2020/12/14 10:58:13;;;;;;;2.08;1.98;;;;;;;;;;4437034;32;20068;-86
2020/12/14 11:00:42;;;;;;;0.30;0.30;;;;;;;;;;4440117;32;20112;-86
2020/12/14 11:03:10;;;;;;;1.75;0.45;;;;;;;;;;4435807;32;20109;-86
2020/12/14 11:05:38;;;;;;;0.93;0.40;;;;;;;;;;4441892;32;20089;-86
2020/12/14 11:08:07;;;;;;;0.45;0.40;;;;;;;;;;4435737;32;20113;-85
2020/12/14 11:10:35;;;;;;;0.20;0.20;;;;;;;;;;4432603;32;20419;-86
2020/12/14 11:13:03;;;;;;;0.90;0.65;;;;;;;;;;4444576;32;20054;-86
2020/12/14 11:15:31;;;;;;;0.62;0.60;;;;;;;;;;4442177;32;20077;-86
2020/12/14 11:17:59;;;;;;;2.80;2.70;;;;;;;;;;4445419;32;20509;-86
2020/12/14 11:20:28;;;;;;;5.15;4.95;;;;;;;;;;4443417;32;20050;-87
2020/12/14 11:23:16;;;;;;;3.80;3.60;;;;;;;;;;4441158;32;20614;-86
2020/12/14 11:25:44;;;;;;;9.98;9.57;;;;;;;;;;4441349;32;20102;-87
2020/12/14 11:28:14;;;;;;;1.65;1.55;;;;;;;;;;4446210;32;20165;-87
2020/12/14 11:30:41;;;;;;;0.50;0.50;;;;;;;;;;4441391;32;20102;-87
2020/12/14 11:33:09;;;;;;;8.90;8.38;;;;;;;;;;4444135;32;20251;-87
2020/12/14 11:35:37;;;;;;;6.40;6.20;;;29.90;78.70;;;;;;4445496;32;20053;-87
2020/12/14 11:38:05;;;;;;;1.00;1.00;;;;;;;;;;4438168;32;20108;-86
2020/12/14 11:40:33;;;;;;;1.12;0.50;;;;;;;;;;4436137;32;20106;-86
2020/12/14 11:43:02;;;;;;;0.73;0.73;;;;;;;;;;4444043;32;20153;-87
2020/12/14 11:45:49;;;;;;;3.20;0.50;;;25.50;90.10;;;;;;4443669;32;20081;-86
2020/12/14 11:48:18;;;;;;;0.60;0.60;;;24.90;91.10;;;;;;4443648;32;20085;-85
2020/12/14 11:50:45;;;;;;;0.50;0.50;;;24.70;91.60;;;;;;4442903;32;20104;-85
2020/12/14 11:53:13;;;;;;;0.65;0.62;;;24.00;92.40;;;;;;4436126;32;20114;-86
2020/12/14 11:55:44;;;;;;;1.00;0.90;;;23.80;93.80;;;;;;4446206;32;20884;-86
2020/12/14 11:58:12;;;;;;;0.93;0.50;;;23.60;94.20;;;;;;4428597;32;20071;-86
2020/12/14 12:00:40;;;;;;;0.50;0.50;;;23.40;93.90;;;;;;4445467;32;20422;-86
2020/12/14 12:03:08;;;;;;;0.32;0.32;;;;;;;;;;4441722;32;20534;-86
2020/12/14 12:05:36;;;;;;;1.12;0.88;;;22.60;95.60;;;;;;4439107;32;20077;-85
2020/12/14 12:08:04;;;;;;;2.85;0.50;;;22.10;96.60;;;;;;4438338;32;20068;-85
2020/12/14 12:10:33;;;;;;;0.88;0.43;;;22.20;98.50;;;;;;4445897;32;20075;-86
2020/12/14 12:13:00;;;;;;;0.40;0.32;;;21.90;98.90;;;;;;4445080;32;20067;-86
2020/12/14 12:15:28;;;;;;;0.98;0.50;;;21.40;99.60;;;;;;4447706;32;20062;-85
2020/12/14 12:17:56;;;;;;;0.73;0.50;;;21.30;99.90;;;;;;4443758;32;20097;-85
2020/12/14 12:20:24;;;;;;;1.55;0.60;;;21.40;99.90;;;;;;4433656;32;20070;-85
2020/12/14 12:22:57;;;;;;;0.65;0.60;;;21.20;99.90;;;;;;4444201;32;20120;-85
2020/12/14 12:25:25;;;;;;;0.70;0.52;;;21.40;99.90;;;;;;4443565;32;20057;-86
2020/12/14 12:27:54;;;;;;;0.30;0.30;;;21.80;99.30;;;;;;4435885;32;20125;-85
2020/12/14 12:30:22;;;;;;;0.62;0.45;;;21.80;98.80;;;;;;4440987;32;20050;-87
2020/12/14 12:32:50;;;;;;;0.80;0.50;;;21.70;98.30;;;;;;4440702;32;20050;-86
2020/12/14 12:35:18;;;;;;;0.60;0.43;;;21.60;98.00;;;;;;4432172;32;20135;-86
2020/12/14 12:37:46;;;;;;;2.50;0.80;;;21.70;98.00;;;;;;4434092;32;20116;-86
2020/12/14 12:40:15;;;;;;;5.43;0.50;;;21.60;98.00;;;;;;4440633;32;20061;-86
2020/12/14 12:42:42;;;;;;;0.65;0.40;;;21.60;98.80;;;;;;4444846;32;20102;-85
2020/12/14 12:45:10;;;;;;;0.45;0.40;;;21.30;99.70;;;;;;4445747;32;20050;-85
2020/12/14 12:47:38;;;;;;;0.62;0.32;;;21.20;99.90;;;;;;4443159;32;20065;-85
2020/12/14 12:50:06;;;;;;;0.43;0.43;;;21.20;99.40;;;;;;4436107;32;20126;-86
2020/12/14 12:52:34;;;;;;;0.40;0.40;;;21.30;99.90;;;;;;4444945;32;20176;-85
2020/12/14 12:55:02;;;;;;;0.50;0.50;;;21.60;99.30;;;;;;4443300;32;20106;-86
2020/12/14 12:57:30;;;;;;;0.50;0.50;;;21.80;98.80;;;;;;4436970;32;20088;-86
2020/12/14 12:59:58;;;;;;;0.50;0.50;;;22.20;99.50;;;;;;4443926;32;20057;-85
2020/12/14 13:02:26;;;;;;;1.00;0.50;;;22.30;97.50;;;;;;4438206;32;20077;-85
2020/12/14 13:04:55;;;;;;;1.40;0.50;;;22.10;96.80;;;;;;4442502;32;20080;-86
2020/12/14 13:07:22;;;;;;;0.88;0.47;;;22.50;98.40;;;;;;4440271;32;20087;-86
2020/12/14 13:09:50;;;;;;;1.08;0.85;;;22.20;97.40;;;;;;4438775;32;20109;-86
2020/12/14 13:12:22;;;;;;;1.50;0.68;;;22.00;98.50;;;;;;4438524;32;20636;-84
2020/12/14 13:14:51;;;;;;;3.45;0.40;;;22.00;99.30;;;;;;4443509;32;20843;-85
2020/12/14 13:17:19;;;;;;;1.30;0.45;;;21.70;99.90;;;;;;4440716;32;20101;-85
2020/12/14 13:19:46;;;;;;;0.75;0.35;;;21.40;99.90;;;;;;4444352;32;20407;-85
2020/12/14 13:22:14;;;;;;;0.57;0.40;;;21.30;99.90;;;;;;4441356;32;20152;-85
2020/12/14 13:24:42;;;;;;;0.57;0.57;;;21.40;99.90;;;;;;4418940;32;20058;-86
2020/12/14 13:27:10;;;;;;;0.95;0.40;;;21.30;99.90;;;;;;4434857;32;20053;-86
2020/12/14 13:29:39;;;;;;;1.02;0.40;;;21.20;99.90;;;;;;4441382;32;20098;-88
2020/12/14 13:32:08;;;;;;;0.68;0.40;;;21.30;99.90;;;;;;4434157;32;20058;-85
2020/12/14 13:34:36;;;;;;;0.62;0.50;;;21.40;99.60;;;;;;4444381;32;20140;-85
2020/12/14 13:37:03;;;;;;;0.43;0.32;;;21.30;99.60;;;;;;4438587;32;20057;-85
2020/12/14 13:39:31;;;;;;;2.83;0.40;;;21.30;99.20;;;;;;4439984;32;20101;-85
2020/12/14 13:41:59;;;;;;;0.30;0.30;;;21.30;99.10;;;;;;4432876;32;20130;-85
2020/12/14 13:44:27;;;;;;;0.40;0.40;;;21.40;99.10;;;;;;4438097;32;20146;-85
2020/12/14 13:46:54;;;;;;;1.05;0.40;;;21.40;99.50;;;;;;4441846;32;20105;-85
2020/12/14 13:49:22;;;;;;;2.85;0.62;;;21.60;98.80;;;;;;4430817;32;20062;-85
2020/12/14 13:51:50;;;;;;;0.45;0.45;;;21.30;99.90;;;;;;4444413;32;20086;-85
2020/12/14 13:54:18;;;;;;;0.40;0.40;;;21.10;99.90;;;;;;4444030;32;20058;-85
2020/12/14 13:56:45;;;;;;;0.60;0.50;;;21.10;99.50;;;;;;4439773;32;20440;-85
2020/12/14 13:59:13;;;;;;;0.55;0.50;;;21.50;99.20;;;;;;4443285;32;20611;-86
2020/12/14 14:01:41;;;;;;;1.00;0.52;;;21.50;99.20;;;;;;4443563;32;20072;-85
2020/12/14 14:04:10;;;;;;;0.93;0.40;;;21.50;99.10;;;;;;4434808;32;20131;-85
2020/12/14 14:06:38;;;;;;;1.17;0.50;;;21.80;98.00;;;;;;4425846;32;20512;-85
2020/12/14 14:09:06;;;;;;;1.30;0.60;;;21.90;97.80;;;;;;4434942;32;20129;-85
2020/12/14 14:11:34;;;;;;;1.92;0.40;;;21.60;98.00;;;;;;4444910;32;20093;-85
2020/12/14 14:14:02;;;;;;;1.02;0.60;;;22.00;97.80;;;;;;4442792;32;20135;-85
2020/12/14 14:16:29;;;;;;;7.32;0.60;;;22.20;98.10;;;;;;4431178;32;20349;-84
2020/12/14 14:18:57;;;;;;;1.17;0.40;;;22.20;97.40;;;;;;4436221;32;20093;-84
2020/12/14 14:21:25;;;;;;;0.40;0.40;;;22.10;96.70;;;;;;4442568;32;20071;-85
2020/12/14 14:23:53;;;;;;;2.05;0.55;;;22.10;97.10;;;;;;4448260;32;20405;-84
2020/12/14 14:26:21;;;;;;;0.45;0.40;;;22.40;95.90;;;;;;4432534;32;20108;-84
2020/12/14 14:28:48;;;;;;;0.60;0.35;;;22.50;96.70;;;;;;4437946;32;20090;-84
2020/12/14 14:31:17;;;;;;;1.12;0.43;;;22.60;95.10;;;;;;4434163;32;20105;-84
2020/12/14 14:33:45;;;;;;;1.00;0.50;;;22.40;98.00;;;;;;4445291;32;20105;-85